sensor_id;sensor_type;location;lat;lon;timestamp;P1;durP1;ratioP1;P2;durP2;ratioP2
52734;SDS011;38631;47.572;10.704;2023-01-24T00:01:21;27.52;;;15.35;;
52734;SDS011;38631;47.572;10.704;2023-01-24T00:03:47;27.83;;;14.82;;
52734;SDS011;38631;47.572;10.704;2023-01-24T00:06:13;22.00;;;13.50;;
52734;SDS011;38631;47.572;10.704;2023-01-24T00:08:38;24.10;;;12.98;;
52734;SDS011;38631;47.572;10.704;2023-01-24T00:11:05;23.90;;;13.93;;
52734;SDS011;38631;47.572;10.704;2023-01-24T00:13:32;20.30;;;12.25;;
52734;SDS011;38631;47.572;10.704;2023-01-24T00:16:04;21.90;;;12.65;;
52734;SDS011;38631;47.572;10.704;2023-01-24T00:18:42;21.85;;;11.88;;
52734;SDS011;38631;47.572;10.704;2023-01-24T00:21:09;24.15;;;12.02;;
52734;SDS011;38631;47.572;10.704;2023-01-24T00:23:46;23.38;;;13.43;;
52734;SDS011;38631;47.572;10.704;2023-01-24T00:26:13;23.33;;;13.27;;
52734;SDS011;38631;47.572;10.704;2023-01-24T00:28:39;19.75;;;12.32;;
52734;SDS011;38631;47.572;10.704;2023-01-24T00:31:05;20.70;;;12.20;;
52734;SDS011;38631;47.572;10.704;2023-01-24T00:33:31;22.35;;;12.30;;
52734;SDS011;38631;47.572;10.704;2023-01-24T00:35:57;19.27;;;11.38;;
52734;SDS011;38631;47.572;10.704;2023-01-24T00:38:22;22.50;;;12.02;;
52734;SDS011;38631;47.572;10.704;2023-01-24T00:40:47;21.08;;;12.00;;
52734;SDS011;38631;47.572;10.704;2023-01-24T00:43:13;19.48;;;11.55;;
52734;SDS011;38631;47.572;10.704;2023-01-24T00:45:40;18.80;;;11.68;;
52734;SDS011;38631;47.572;10.704;2023-01-24T00:48:06;17.83;;;11.15;;
52734;SDS011;38631;47.572;10.704;2023-01-24T00:50:32;18.67;;;11.30;;
52734;SDS011;38631;47.572;10.704;2023-01-24T00:52:58;17.92;;;10.52;;
52734;SDS011;38631;47.572;10.704;2023-01-24T00:55:24;17.60;;;11.13;;
52734;SDS011;38631;47.572;10.704;2023-01-24T00:57:49;17.05;;;10.43;;
52734;SDS011;38631;47.572;10.704;2023-01-24T01:00:15;18.63;;;9.68;;
52734;SDS011;38631;47.572;10.704;2023-01-24T01:02:41;16.50;;;9.85;;
52734;SDS011;38631;47.572;10.704;2023-01-24T01:05:06;20.08;;;10.48;;
52734;SDS011;38631;47.572;10.704;2023-01-24T01:07:32;17.25;;;11.05;;
52734;SDS011;38631;47.572;10.704;2023-01-24T01:09:57;18.42;;;10.43;;
52734;SDS011;38631;47.572;10.704;2023-01-24T01:12:22;19.13;;;11.05;;
52734;SDS011;38631;47.572;10.704;2023-01-24T01:14:48;21.50;;;11.75;;
52734;SDS011;38631;47.572;10.704;2023-01-24T01:17:13;24.25;;;11.25;;
52734;SDS011;38631;47.572;10.704;2023-01-24T01:19:39;22.65;;;11.23;;
52734;SDS011;38631;47.572;10.704;2023-01-24T01:22:04;16.25;;;9.68;;
52734;SDS011;38631;47.572;10.704;2023-01-24T01:24:30;18.63;;;11.10;;
52734;SDS011;38631;47.572;10.704;2023-01-24T01:26:55;18.25;;;10.75;;
52734;SDS011;38631;47.572;10.704;2023-01-24T01:29:21;17.48;;;10.10;;
52734;SDS011;38631;47.572;10.704;2023-01-24T01:31:46;17.23;;;9.85;;
52734;SDS011;38631;47.572;10.704;2023-01-24T01:34:11;21.58;;;11.00;;
52734;SDS011;38631;47.572;10.704;2023-01-24T01:36:37;15.63;;;10.20;;
52734;SDS011;38631;47.572;10.704;2023-01-24T01:39:02;16.27;;;9.95;;
52734;SDS011;38631;47.572;10.704;2023-01-24T01:41:27;16.75;;;9.43;;
52734;SDS011;38631;47.572;10.704;2023-01-24T01:43:53;15.73;;;9.32;;
52734;SDS011;38631;47.572;10.704;2023-01-24T01:46:44;15.13;;;8.95;;
52734;SDS011;38631;47.572;10.704;2023-01-24T01:49:17;15.52;;;9.35;;
52734;SDS011;38631;47.572;10.704;2023-01-24T01:51:47;15.93;;;8.38;;
52734;SDS011;38631;47.572;10.704;2023-01-24T01:54:19;16.90;;;8.97;;
52734;SDS011;38631;47.572;10.704;2023-01-24T01:56:51;17.02;;;10.07;;
52734;SDS011;38631;47.572;10.704;2023-01-24T01:59:22;13.23;;;8.10;;
52734;SDS011;38631;47.572;10.704;2023-01-24T02:01:51;19.08;;;10.82;;
52734;SDS011;38631;47.572;10.704;2023-01-24T02:04:25;23.42;;;11.75;;
52734;SDS011;38631;47.572;10.704;2023-01-24T02:09:42;22.98;;;11.60;;
52734;SDS011;38631;47.572;10.704;2023-01-24T02:12:15;20.60;;;10.98;;
52734;SDS011;38631;47.572;10.704;2023-01-24T02:14:46;23.55;;;13.63;;
52734;SDS011;38631;47.572;10.704;2023-01-24T02:17:34;19.77;;;10.95;;
52734;SDS011;38631;47.572;10.704;2023-01-24T02:20:02;21.52;;;11.18;;
52734;SDS011;38631;47.572;10.704;2023-01-24T02:22:46;20.08;;;10.15;;
52734;SDS011;38631;47.572;10.704;2023-01-24T02:28:27;19.23;;;10.68;;
52734;SDS011;38631;47.572;10.704;2023-01-24T02:30:57;27.55;;;13.75;;
52734;SDS011;38631;47.572;10.704;2023-01-24T02:33:23;22.83;;;12.45;;
52734;SDS011;38631;47.572;10.704;2023-01-24T02:35:48;20.08;;;11.15;;
52734;SDS011;38631;47.572;10.704;2023-01-24T02:38:21;21.25;;;10.60;;
52734;SDS011;38631;47.572;10.704;2023-01-24T02:40:52;15.65;;;9.40;;
52734;SDS011;38631;47.572;10.704;2023-01-24T02:43:20;15.27;;;9.07;;
52734;SDS011;38631;47.572;10.704;2023-01-24T02:45:49;13.05;;;7.60;;
52734;SDS011;38631;47.572;10.704;2023-01-24T02:48:15;14.10;;;8.65;;
52734;SDS011;38631;47.572;10.704;2023-01-24T02:50:40;15.50;;;8.60;;
52734;SDS011;38631;47.572;10.704;2023-01-24T02:53:24;12.77;;;7.68;;
52734;SDS011;38631;47.572;10.704;2023-01-24T02:55:56;15.40;;;8.27;;
52734;SDS011;38631;47.572;10.704;2023-01-24T02:58:41;20.35;;;9.80;;
52734;SDS011;38631;47.572;10.704;2023-01-24T03:01:07;14.68;;;9.18;;
52734;SDS011;38631;47.572;10.704;2023-01-24T03:03:32;14.18;;;8.00;;
52734;SDS011;38631;47.572;10.704;2023-01-24T03:05:58;14.27;;;8.25;;
52734;SDS011;38631;47.572;10.704;2023-01-24T03:08:24;17.35;;;9.45;;
52734;SDS011;38631;47.572;10.704;2023-01-24T03:10:50;13.60;;;8.70;;
52734;SDS011;38631;47.572;10.704;2023-01-24T03:13:15;15.00;;;9.23;;
52734;SDS011;38631;47.572;10.704;2023-01-24T03:16:00;16.30;;;9.80;;
52734;SDS011;38631;47.572;10.704;2023-01-24T03:18:45;13.70;;;8.45;;
52734;SDS011;38631;47.572;10.704;2023-01-24T03:21:28;13.50;;;8.50;;
52734;SDS011;38631;47.572;10.704;2023-01-24T03:24:12;15.05;;;9.38;;
52734;SDS011;38631;47.572;10.704;2023-01-24T03:26:56;16.13;;;9.32;;
52734;SDS011;38631;47.572;10.704;2023-01-24T03:29:40;17.45;;;9.90;;
52734;SDS011;38631;47.572;10.704;2023-01-24T03:32:24;15.15;;;8.82;;
52734;SDS011;38631;47.572;10.704;2023-01-24T03:35:08;17.70;;;9.07;;
52734;SDS011;38631;47.572;10.704;2023-01-24T03:37:33;15.18;;;8.95;;
52734;SDS011;38631;47.572;10.704;2023-01-24T03:40:17;16.52;;;9.95;;
52734;SDS011;38631;47.572;10.704;2023-01-24T03:42:43;13.35;;;8.57;;
52734;SDS011;38631;47.572;10.704;2023-01-24T03:45:15;15.02;;;8.20;;
52734;SDS011;38631;47.572;10.704;2023-01-24T03:47:45;15.55;;;9.60;;
52734;SDS011;38631;47.572;10.704;2023-01-24T03:50:20;18.40;;;9.95;;
52734;SDS011;38631;47.572;10.704;2023-01-24T03:53:07;17.30;;;8.70;;
52734;SDS011;38631;47.572;10.704;2023-01-24T03:55:33;14.75;;;8.77;;
52734;SDS011;38631;47.572;10.704;2023-01-24T03:57:59;17.25;;;9.40;;
52734;SDS011;38631;47.572;10.704;2023-01-24T04:00:24;17.75;;;10.23;;
52734;SDS011;38631;47.572;10.704;2023-01-24T04:02:50;15.98;;;9.07;;
52734;SDS011;38631;47.572;10.704;2023-01-24T04:05:15;14.98;;;8.48;;
52734;SDS011;38631;47.572;10.704;2023-01-24T04:07:41;18.67;;;9.38;;
52734;SDS011;38631;47.572;10.704;2023-01-24T04:10:07;14.02;;;9.18;;
52734;SDS011;38631;47.572;10.704;2023-01-24T04:12:33;15.32;;;8.93;;
52734;SDS011;38631;47.572;10.704;2023-01-24T04:14:58;13.48;;;8.65;;
52734;SDS011;38631;47.572;10.704;2023-01-24T04:17:24;15.80;;;9.60;;
52734;SDS011;38631;47.572;10.704;2023-01-24T04:19:49;16.85;;;9.20;;
52734;SDS011;38631;47.572;10.704;2023-01-24T04:22:15;18.58;;;9.50;;
52734;SDS011;38631;47.572;10.704;2023-01-24T04:24:41;18.33;;;9.93;;
52734;SDS011;38631;47.572;10.704;2023-01-24T04:27:07;15.50;;;9.35;;
52734;SDS011;38631;47.572;10.704;2023-01-24T04:29:33;16.25;;;10.05;;
52734;SDS011;38631;47.572;10.704;2023-01-24T04:31:58;15.68;;;8.63;;
52734;SDS011;38631;47.572;10.704;2023-01-24T04:34:23;19.00;;;11.23;;
52734;SDS011;38631;47.572;10.704;2023-01-24T04:36:49;21.67;;;12.65;;
52734;SDS011;38631;47.572;10.704;2023-01-24T04:39:14;22.63;;;12.20;;
52734;SDS011;38631;47.572;10.704;2023-01-24T04:41:39;18.15;;;10.15;;
52734;SDS011;38631;47.572;10.704;2023-01-24T04:44:05;19.60;;;10.48;;
52734;SDS011;38631;47.572;10.704;2023-01-24T04:46:30;18.40;;;10.15;;
52734;SDS011;38631;47.572;10.704;2023-01-24T04:48:56;18.27;;;10.32;;
52734;SDS011;38631;47.572;10.704;2023-01-24T04:51:21;17.10;;;9.75;;
52734;SDS011;38631;47.572;10.704;2023-01-24T04:53:47;16.55;;;9.15;;
52734;SDS011;38631;47.572;10.704;2023-01-24T04:56:12;12.27;;;8.35;;
52734;SDS011;38631;47.572;10.704;2023-01-24T04:58:37;13.30;;;8.15;;
52734;SDS011;38631;47.572;10.704;2023-01-24T05:01:03;13.77;;;8.43;;
52734;SDS011;38631;47.572;10.704;2023-01-24T05:03:28;12.52;;;8.30;;
52734;SDS011;38631;47.572;10.704;2023-01-24T05:05:54;13.55;;;8.75;;
52734;SDS011;38631;47.572;10.704;2023-01-24T05:08:20;12.82;;;8.10;;
52734;SDS011;38631;47.572;10.704;2023-01-24T05:10:46;14.20;;;8.70;;
52734;SDS011;38631;47.572;10.704;2023-01-24T05:13:11;13.95;;;7.78;;
52734;SDS011;38631;47.572;10.704;2023-01-24T05:15:37;13.15;;;8.15;;
52734;SDS011;38631;47.572;10.704;2023-01-24T05:18:03;14.55;;;8.35;;
52734;SDS011;38631;47.572;10.704;2023-01-24T05:20:29;15.40;;;8.95;;
52734;SDS011;38631;47.572;10.704;2023-01-24T05:22:55;15.68;;;9.57;;
52734;SDS011;38631;47.572;10.704;2023-01-24T05:25:21;14.85;;;9.02;;
52734;SDS011;38631;47.572;10.704;2023-01-24T05:27:46;17.75;;;9.98;;
52734;SDS011;38631;47.572;10.704;2023-01-24T05:30:11;17.95;;;10.95;;
52734;SDS011;38631;47.572;10.704;2023-01-24T05:32:37;22.50;;;13.25;;
52734;SDS011;38631;47.572;10.704;2023-01-24T05:35:03;24.10;;;13.60;;
52734;SDS011;38631;47.572;10.704;2023-01-24T05:37:29;20.27;;;12.70;;
52734;SDS011;38631;47.572;10.704;2023-01-24T05:39:54;20.50;;;11.55;;
52734;SDS011;38631;47.572;10.704;2023-01-24T05:42:19;18.90;;;10.13;;
52734;SDS011;38631;47.572;10.704;2023-01-24T05:44:45;14.45;;;8.77;;
52734;SDS011;38631;47.572;10.704;2023-01-24T05:47:10;16.40;;;9.85;;
52734;SDS011;38631;47.572;10.704;2023-01-24T05:49:35;13.60;;;8.57;;
52734;SDS011;38631;47.572;10.704;2023-01-24T05:52:03;13.15;;;8.43;;
52734;SDS011;38631;47.572;10.704;2023-01-24T05:54:28;14.07;;;8.32;;
52734;SDS011;38631;47.572;10.704;2023-01-24T05:56:54;10.98;;;7.72;;
52734;SDS011;38631;47.572;10.704;2023-01-24T05:59:20;13.45;;;7.15;;
52734;SDS011;38631;47.572;10.704;2023-01-24T06:01:45;14.13;;;8.10;;
52734;SDS011;38631;47.572;10.704;2023-01-24T06:04:11;11.85;;;7.13;;
52734;SDS011;38631;47.572;10.704;2023-01-24T06:06:37;11.90;;;7.38;;
52734;SDS011;38631;47.572;10.704;2023-01-24T06:09:02;11.30;;;7.25;;
52734;SDS011;38631;47.572;10.704;2023-01-24T06:11:28;11.32;;;7.03;;
52734;SDS011;38631;47.572;10.704;2023-01-24T06:13:54;12.70;;;7.07;;
52734;SDS011;38631;47.572;10.704;2023-01-24T06:16:21;10.55;;;6.50;;
52734;SDS011;38631;47.572;10.704;2023-01-24T06:18:48;11.20;;;6.80;;
52734;SDS011;38631;47.572;10.704;2023-01-24T06:23:58;11.82;;;6.63;;
52734;SDS011;38631;47.572;10.704;2023-01-24T06:26:24;12.27;;;7.20;;
52734;SDS011;38631;47.572;10.704;2023-01-24T06:28:50;10.60;;;6.57;;
52734;SDS011;38631;47.572;10.704;2023-01-24T06:37:07;13.27;;;7.15;;
52734;SDS011;38631;47.572;10.704;2023-01-24T06:39:40;16.58;;;8.45;;
52734;SDS011;38631;47.572;10.704;2023-01-24T06:42:18;20.02;;;11.15;;
52734;SDS011;38631;47.572;10.704;2023-01-24T06:44:44;15.98;;;10.15;;
52734;SDS011;38631;47.572;10.704;2023-01-24T06:47:10;15.50;;;8.18;;
52734;SDS011;38631;47.572;10.704;2023-01-24T06:49:36;12.75;;;8.07;;
52734;SDS011;38631;47.572;10.704;2023-01-24T06:52:03;12.02;;;7.80;;
52734;SDS011;38631;47.572;10.704;2023-01-24T06:54:28;11.82;;;7.60;;
52734;SDS011;38631;47.572;10.704;2023-01-24T06:56:53;14.50;;;8.07;;
52734;SDS011;38631;47.572;10.704;2023-01-24T06:59:19;15.07;;;8.23;;
52734;SDS011;38631;47.572;10.704;2023-01-24T07:01:47;15.60;;;9.10;;
52734;SDS011;38631;47.572;10.704;2023-01-24T07:04:15;12.95;;;8.27;;
52734;SDS011;38631;47.572;10.704;2023-01-24T07:06:41;20.90;;;10.93;;
52734;SDS011;38631;47.572;10.704;2023-01-24T07:09:06;18.02;;;10.52;;
52734;SDS011;38631;47.572;10.704;2023-01-24T07:11:32;16.20;;;9.82;;
52734;SDS011;38631;47.572;10.704;2023-01-24T07:13:58;24.77;;;12.80;;
52734;SDS011;38631;47.572;10.704;2023-01-24T07:16:23;18.25;;;10.15;;
52734;SDS011;38631;47.572;10.704;2023-01-24T07:18:48;15.18;;;9.20;;
52734;SDS011;38631;47.572;10.704;2023-01-24T07:21:14;14.05;;;9.25;;
52734;SDS011;38631;47.572;10.704;2023-01-24T07:23:44;14.75;;;8.77;;
52734;SDS011;38631;47.572;10.704;2023-01-24T07:26:11;16.00;;;9.25;;
52734;SDS011;38631;47.572;10.704;2023-01-24T07:28:37;23.30;;;13.15;;
52734;SDS011;38631;47.572;10.704;2023-01-24T07:31:02;24.35;;;14.40;;
52734;SDS011;38631;47.572;10.704;2023-01-24T07:33:28;33.00;;;17.85;;
52734;SDS011;38631;47.572;10.704;2023-01-24T07:35:54;24.00;;;14.93;;
52734;SDS011;38631;47.572;10.704;2023-01-24T07:38:20;20.75;;;11.60;;
52734;SDS011;38631;47.572;10.704;2023-01-24T07:40:45;16.63;;;10.52;;
52734;SDS011;38631;47.572;10.704;2023-01-24T07:43:10;16.67;;;9.85;;
52734;SDS011;38631;47.572;10.704;2023-01-24T07:45:36;16.77;;;10.20;;
52734;SDS011;38631;47.572;10.704;2023-01-24T07:48:03;14.80;;;8.93;;
52734;SDS011;38631;47.572;10.704;2023-01-24T07:50:29;20.02;;;12.65;;
52734;SDS011;38631;47.572;10.704;2023-01-24T07:52:55;26.50;;;15.70;;
52734;SDS011;38631;47.572;10.704;2023-01-24T07:55:21;33.80;;;15.93;;
52734;SDS011;38631;47.572;10.704;2023-01-24T07:57:47;28.42;;;14.40;;
52734;SDS011;38631;47.572;10.704;2023-01-24T08:00:12;29.08;;;15.20;;
52734;SDS011;38631;47.572;10.704;2023-01-24T08:02:39;27.75;;;14.90;;
52734;SDS011;38631;47.572;10.704;2023-01-24T08:05:04;18.90;;;11.40;;
52734;SDS011;38631;47.572;10.704;2023-01-24T08:07:30;20.40;;;12.75;;
52734;SDS011;38631;47.572;10.704;2023-01-24T08:09:56;17.80;;;10.88;;
52734;SDS011;38631;47.572;10.704;2023-01-24T08:12:21;29.55;;;16.92;;
52734;SDS011;38631;47.572;10.704;2023-01-24T08:14:47;33.55;;;19.85;;
52734;SDS011;38631;47.572;10.704;2023-01-24T08:17:12;38.55;;;22.25;;
52734;SDS011;38631;47.572;10.704;2023-01-24T08:19:37;33.97;;;20.73;;
52734;SDS011;38631;47.572;10.704;2023-01-24T08:22:04;28.20;;;17.63;;
52734;SDS011;38631;47.572;10.704;2023-01-24T08:24:30;25.58;;;16.52;;
52734;SDS011;38631;47.572;10.704;2023-01-24T08:26:55;26.95;;;16.55;;
52734;SDS011;38631;47.572;10.704;2023-01-24T08:29:21;29.85;;;16.75;;
52734;SDS011;38631;47.572;10.704;2023-01-24T08:31:46;27.75;;;16.90;;
52734;SDS011;38631;47.572;10.704;2023-01-24T08:34:13;24.80;;;15.77;;
52734;SDS011;38631;47.572;10.704;2023-01-24T08:36:38;23.17;;;14.52;;
52734;SDS011;38631;47.572;10.704;2023-01-24T08:39:04;23.70;;;14.68;;
52734;SDS011;38631;47.572;10.704;2023-01-24T08:41:29;23.45;;;14.23;;
52734;SDS011;38631;47.572;10.704;2023-01-24T08:43:55;25.88;;;16.13;;
52734;SDS011;38631;47.572;10.704;2023-01-24T08:46:20;31.80;;;18.13;;
52734;SDS011;38631;47.572;10.704;2023-01-24T08:48:46;30.42;;;17.70;;
52734;SDS011;38631;47.572;10.704;2023-01-24T08:51:11;34.97;;;18.45;;
52734;SDS011;38631;47.572;10.704;2023-01-24T08:53:36;31.83;;;18.25;;
52734;SDS011;38631;47.572;10.704;2023-01-24T08:56:02;21.27;;;12.70;;
52734;SDS011;38631;47.572;10.704;2023-01-24T08:58:28;25.10;;;11.77;;
52734;SDS011;38631;47.572;10.704;2023-01-24T09:00:53;17.20;;;11.32;;
52734;SDS011;38631;47.572;10.704;2023-01-24T09:03:19;18.23;;;11.82;;
52734;SDS011;38631;47.572;10.704;2023-01-24T09:05:44;17.42;;;10.50;;
52734;SDS011;38631;47.572;10.704;2023-01-24T09:08:10;22.15;;;11.25;;
52734;SDS011;38631;47.572;10.704;2023-01-24T09:10:35;16.90;;;11.00;;
52734;SDS011;38631;47.572;10.704;2023-01-24T09:13:02;21.85;;;11.68;;
52734;SDS011;38631;47.572;10.704;2023-01-24T09:15:27;20.55;;;12.95;;
52734;SDS011;38631;47.572;10.704;2023-01-24T09:17:53;18.10;;;11.73;;
52734;SDS011;38631;47.572;10.704;2023-01-24T09:20:18;21.15;;;11.20;;
52734;SDS011;38631;47.572;10.704;2023-01-24T09:22:44;17.77;;;10.07;;
52734;SDS011;38631;47.572;10.704;2023-01-24T09:25:09;13.20;;;9.18;;
52734;SDS011;38631;47.572;10.704;2023-01-24T09:27:35;15.77;;;10.00;;
52734;SDS011;38631;47.572;10.704;2023-01-24T09:30:02;23.75;;;10.63;;
52734;SDS011;38631;47.572;10.704;2023-01-24T09:32:27;15.38;;;8.68;;
52734;SDS011;38631;47.572;10.704;2023-01-24T09:34:54;10.90;;;7.53;;
52734;SDS011;38631;47.572;10.704;2023-01-24T09:37:19;14.95;;;7.97;;
52734;SDS011;38631;47.572;10.704;2023-01-24T09:39:46;14.88;;;8.90;;
52734;SDS011;38631;47.572;10.704;2023-01-24T09:42:29;15.60;;;8.65;;
52734;SDS011;38631;47.572;10.704;2023-01-24T09:48:02;23.45;;;12.45;;
52734;SDS011;38631;47.572;10.704;2023-01-24T09:53:44;15.50;;;8.27;;
52734;SDS011;38631;47.572;10.704;2023-01-24T09:56:24;13.95;;;8.07;;
52734;SDS011;38631;47.572;10.704;2023-01-24T09:59:05;16.83;;;7.80;;
52734;SDS011;38631;47.572;10.704;2023-01-24T10:01:52;16.83;;;8.98;;
52734;SDS011;38631;47.572;10.704;2023-01-24T10:06:54;15.68;;;9.20;;
52734;SDS011;38631;47.572;10.704;2023-01-24T10:09:27;13.60;;;9.00;;
52734;SDS011;38631;47.572;10.704;2023-01-24T10:17:37;13.43;;;8.40;;
52734;SDS011;38631;47.572;10.704;2023-01-24T10:20:15;14.27;;;9.02;;
52734;SDS011;38631;47.572;10.704;2023-01-24T10:23:02;16.00;;;9.70;;
52734;SDS011;38631;47.572;10.704;2023-01-24T10:25:51;14.77;;;9.52;;
52734;SDS011;38631;47.572;10.704;2023-01-24T10:28:27;15.35;;;10.40;;
52734;SDS011;38631;47.572;10.704;2023-01-24T10:33:31;13.43;;;8.50;;
52734;SDS011;38631;47.572;10.704;2023-01-24T10:36:01;13.30;;;8.70;;
52734;SDS011;38631;47.572;10.704;2023-01-24T10:38:28;12.38;;;8.30;;
52734;SDS011;38631;47.572;10.704;2023-01-24T10:40:55;16.05;;;9.13;;
52734;SDS011;38631;47.572;10.704;2023-01-24T10:43:25;15.77;;;10.07;;
52734;SDS011;38631;47.572;10.704;2023-01-24T10:48:47;22.58;;;11.98;;
52734;SDS011;38631;47.572;10.704;2023-01-24T10:51:17;22.27;;;13.57;;
52734;SDS011;38631;47.572;10.704;2023-01-24T10:53:46;22.15;;;13.52;;
52734;SDS011;38631;47.572;10.704;2023-01-24T10:56:16;25.90;;;14.15;;
52734;SDS011;38631;47.572;10.704;2023-01-24T10:59:17;22.73;;;12.65;;
52734;SDS011;38631;47.572;10.704;2023-01-24T11:01:47;17.50;;;10.65;;
52734;SDS011;38631;47.572;10.704;2023-01-24T11:04:22;18.83;;;10.40;;
52734;SDS011;38631;47.572;10.704;2023-01-24T11:06:51;21.00;;;11.50;;
52734;SDS011;38631;47.572;10.704;2023-01-24T11:09:21;20.17;;;12.35;;
52734;SDS011;38631;47.572;10.704;2023-01-24T11:11:53;18.13;;;10.93;;
52734;SDS011;38631;47.572;10.704;2023-01-24T11:14:20;15.73;;;10.00;;
52734;SDS011;38631;47.572;10.704;2023-01-24T11:16:49;13.98;;;9.48;;
52734;SDS011;38631;47.572;10.704;2023-01-24T11:21:57;16.58;;;10.27;;
52734;SDS011;38631;47.572;10.704;2023-01-24T11:24:24;16.00;;;8.60;;
52734;SDS011;38631;47.572;10.704;2023-01-24T11:26:53;13.43;;;7.57;;
52734;SDS011;38631;47.572;10.704;2023-01-24T11:29:37;13.07;;;7.95;;
52734;SDS011;38631;47.572;10.704;2023-01-24T11:32:16;15.48;;;9.38;;
52734;SDS011;38631;47.572;10.704;2023-01-24T11:34:53;11.25;;;7.57;;
52734;SDS011;38631;47.572;10.704;2023-01-24T11:40:22;14.30;;;8.60;;
52734;SDS011;38631;47.572;10.704;2023-01-24T11:45:49;16.98;;;10.35;;
52734;SDS011;38631;47.572;10.704;2023-01-24T11:51:36;15.90;;;9.55;;
52734;SDS011;38631;47.572;10.704;2023-01-24T11:54:12;13.80;;;9.30;;
52734;SDS011;38631;47.572;10.704;2023-01-24T12:02:43;18.52;;;10.48;;
52734;SDS011;38631;47.572;10.704;2023-01-24T12:21:58;15.18;;;8.93;;
52734;SDS011;38631;47.572;10.704;2023-01-24T12:24:31;16.00;;;9.07;;
52734;SDS011;38631;47.572;10.704;2023-01-24T12:27:01;18.05;;;9.93;;
52734;SDS011;38631;47.572;10.704;2023-01-24T12:29:31;18.73;;;10.90;;
52734;SDS011;38631;47.572;10.704;2023-01-24T12:34:59;15.27;;;10.48;;
52734;SDS011;38631;47.572;10.704;2023-01-24T12:40:44;17.85;;;11.05;;
52734;SDS011;38631;47.572;10.704;2023-01-24T12:46:04;16.73;;;9.82;;
52734;SDS011;38631;47.572;10.704;2023-01-24T12:48:38;17.23;;;10.45;;
52734;SDS011;38631;47.572;10.704;2023-01-24T12:51:51;16.73;;;10.55;;
52734;SDS011;38631;47.572;10.704;2023-01-24T12:54:04;16.13;;;10.07;;
52734;SDS011;38631;47.572;10.704;2023-01-24T12:56:39;13.75;;;9.25;;
52734;SDS011;38631;47.572;10.704;2023-01-24T12:59:12;13.90;;;8.98;;
52734;SDS011;38631;47.572;10.704;2023-01-24T13:10:06;14.13;;;9.55;;
52734;SDS011;38631;47.572;10.704;2023-01-24T13:12:34;15.57;;;9.95;;
52734;SDS011;38631;47.572;10.704;2023-01-24T13:15:03;13.70;;;9.43;;
52734;SDS011;38631;47.572;10.704;2023-01-24T13:34:13;16.70;;;10.45;;
52734;SDS011;38631;47.572;10.704;2023-01-24T13:36:49;16.20;;;10.20;;
52734;SDS011;38631;47.572;10.704;2023-01-24T13:39:32;15.23;;;9.98;;
52734;SDS011;38631;47.572;10.704;2023-01-24T13:42:02;13.35;;;8.85;;
52734;SDS011;38631;47.572;10.704;2023-01-24T13:44:30;15.57;;;10.10;;
52734;SDS011;38631;47.572;10.704;2023-01-24T13:47:02;18.48;;;10.93;;
52734;SDS011;38631;47.572;10.704;2023-01-24T13:55:01;17.92;;;10.65;;
52734;SDS011;38631;47.572;10.704;2023-01-24T13:57:30;19.17;;;10.70;;
52734;SDS011;38631;47.572;10.704;2023-01-24T14:00:14;15.30;;;10.45;;
52734;SDS011;38631;47.572;10.704;2023-01-24T14:02:43;16.98;;;10.73;;
52734;SDS011;38631;47.572;10.704;2023-01-24T14:06:03;17.05;;;11.23;;
52734;SDS011;38631;47.572;10.704;2023-01-24T14:10:44;17.40;;;11.48;;
52734;SDS011;38631;47.572;10.704;2023-01-24T14:21:46;18.60;;;12.57;;
52734;SDS011;38631;47.572;10.704;2023-01-24T14:24:23;18.60;;;13.02;;
52734;SDS011;38631;47.572;10.704;2023-01-24T14:26:55;18.20;;;11.85;;
52734;SDS011;38631;47.572;10.704;2023-01-24T14:29:26;18.67;;;12.30;;
52734;SDS011;38631;47.572;10.704;2023-01-24T14:32:01;30.02;;;19.50;;
52734;SDS011;38631;47.572;10.704;2023-01-24T14:34:37;23.17;;;13.98;;
52734;SDS011;38631;47.572;10.704;2023-01-24T14:37:08;19.75;;;12.48;;
52734;SDS011;38631;47.572;10.704;2023-01-24T14:39:36;18.70;;;12.20;;
52734;SDS011;38631;47.572;10.704;2023-01-24T14:42:03;21.75;;;13.73;;
52734;SDS011;38631;47.572;10.704;2023-01-24T14:44:31;19.95;;;11.93;;
52734;SDS011;38631;47.572;10.704;2023-01-24T14:47:05;18.65;;;11.52;;
52734;SDS011;38631;47.572;10.704;2023-01-24T14:49:54;19.52;;;12.77;;
52734;SDS011;38631;47.572;10.704;2023-01-24T14:52:22;21.50;;;13.32;;
52734;SDS011;38631;47.572;10.704;2023-01-24T14:57:38;20.20;;;13.48;;
52734;SDS011;38631;47.572;10.704;2023-01-24T15:00:05;19.23;;;12.88;;
52734;SDS011;38631;47.572;10.704;2023-01-24T15:02:39;18.35;;;12.00;;
52734;SDS011;38631;47.572;10.704;2023-01-24T15:05:21;19.05;;;12.77;;
52734;SDS011;38631;47.572;10.704;2023-01-24T15:07:57;22.42;;;14.40;;
52734;SDS011;38631;47.572;10.704;2023-01-24T15:10:24;21.27;;;13.63;;
52734;SDS011;38631;47.572;10.704;2023-01-24T15:12:57;21.50;;;14.02;;
52734;SDS011;38631;47.572;10.704;2023-01-24T15:15:25;20.65;;;12.82;;
52734;SDS011;38631;47.572;10.704;2023-01-24T15:17:52;18.98;;;12.77;;
52734;SDS011;38631;47.572;10.704;2023-01-24T15:20:23;22.35;;;12.68;;
52734;SDS011;38631;47.572;10.704;2023-01-24T15:22:53;19.42;;;12.18;;
52734;SDS011;38631;47.572;10.704;2023-01-24T15:25:20;18.27;;;11.50;;
52734;SDS011;38631;47.572;10.704;2023-01-24T15:27:50;17.65;;;11.40;;
52734;SDS011;38631;47.572;10.704;2023-01-24T15:32:44;19.45;;;12.60;;
52734;SDS011;38631;47.572;10.704;2023-01-24T15:40:30;21.13;;;12.43;;
52734;SDS011;38631;47.572;10.704;2023-01-24T15:42:57;22.90;;;13.90;;
52734;SDS011;38631;47.572;10.704;2023-01-24T15:45:45;23.40;;;14.43;;
52734;SDS011;38631;47.572;10.704;2023-01-24T15:48:15;20.15;;;12.95;;
52734;SDS011;38631;47.572;10.704;2023-01-24T15:50:53;19.13;;;13.35;;
52734;SDS011;38631;47.572;10.704;2023-01-24T15:53:34;18.30;;;12.13;;
52734;SDS011;38631;47.572;10.704;2023-01-24T15:56:20;16.52;;;11.70;;
52734;SDS011;38631;47.572;10.704;2023-01-24T15:58:47;17.92;;;11.75;;
52734;SDS011;38631;47.572;10.704;2023-01-24T16:01:14;20.60;;;12.73;;
52734;SDS011;38631;47.572;10.704;2023-01-24T16:03:39;21.83;;;12.93;;
52734;SDS011;38631;47.572;10.704;2023-01-24T16:06:05;19.88;;;13.85;;
52734;SDS011;38631;47.572;10.704;2023-01-24T16:08:30;22.50;;;12.85;;
52734;SDS011;38631;47.572;10.704;2023-01-24T16:10:55;23.08;;;13.50;;
52734;SDS011;38631;47.572;10.704;2023-01-24T16:16:01;21.00;;;14.43;;
52734;SDS011;38631;47.572;10.704;2023-01-24T16:18:29;20.02;;;13.43;;
52734;SDS011;38631;47.572;10.704;2023-01-24T16:20:54;20.52;;;13.23;;
52734;SDS011;38631;47.572;10.704;2023-01-24T16:23:20;19.33;;;12.48;;
52734;SDS011;38631;47.572;10.704;2023-01-24T16:25:52;20.52;;;12.98;;
52734;SDS011;38631;47.572;10.704;2023-01-24T16:28:22;22.15;;;13.98;;
52734;SDS011;38631;47.572;10.704;2023-01-24T16:30:49;23.15;;;14.70;;
52734;SDS011;38631;47.572;10.704;2023-01-24T16:33:15;20.02;;;12.55;;
52734;SDS011;38631;47.572;10.704;2023-01-24T16:35:41;20.48;;;12.00;;
52734;SDS011;38631;47.572;10.704;2023-01-24T16:38:08;22.33;;;13.65;;